Hopewell, Texas
Current Conditions -  °F | °C
As of 7:35 PM on Saturday 20 Dec 2014 (Local Time) from KDKR Reporting Station
Overcast Overcast  
Wind Chill: 52°   Ceiling: 2200
Heat Index: 52°   Visibility: NA
Dew Point: 48°   Wind: 6mph
Humidity: 88%   Direction: 330°NNW
Pressure: 30.23"   Gusts: NA
Location:  31.2828°N, 95.4821°W
Report Text: KDKR 210135Z AUTO 33005KT OVC022 11/09 A3023 RMK AO2
Loading
Personal Weather Stations






























Interactive Weather Map New forecast layout! Learn more

10-Day Weather Forecast

Advertisements
Track Severe Weather on mobile